createdAt,value
2018-12-25T00:05:05.616Z,85.10
2018-12-25T00:11:10.421Z,85.21
2018-12-25T00:17:15.051Z,85.42
2018-12-25T00:23:19.636Z,85.89
2018-12-25T00:29:24.227Z,86.17
2018-12-25T00:35:28.767Z,86.54
2018-12-25T00:41:33.332Z,86.48
2018-12-25T00:47:37.893Z,86.52
2018-12-25T00:53:42.463Z,87.10
2018-12-25T00:59:47.065Z,86.33
2018-12-25T01:05:51.716Z,86.38
2018-12-25T01:13:02.461Z,85.96
2018-12-25T01:19:07.021Z,86.06
2018-12-25T01:25:11.676Z,86.29
2018-12-25T01:31:16.237Z,86.35
2018-12-25T01:37:20.985Z,86.40
2018-12-25T01:43:25.570Z,86.37
2018-12-25T01:49:31.883Z,86.31
2018-12-25T01:55:36.434Z,86.38
2018-12-25T02:01:41.051Z,85.62
2018-12-25T02:07:45.605Z,85.85
2018-12-25T02:13:50.314Z,85.40
2018-12-25T02:19:54.978Z,86.12
2018-12-25T02:25:59.556Z,85.82
2018-12-25T02:32:04.200Z,86.33
2018-12-25T02:38:08.834Z,86.55
2018-12-25T02:44:13.416Z,86.60
2018-12-25T02:50:19.030Z,86.81
2018-12-25T02:56:23.611Z,86.76
2018-12-25T03:02:28.161Z,86.90
2018-12-25T03:08:32.715Z,86.95
2018-12-25T03:14:37.292Z,87.11
2018-12-25T03:20:41.851Z,87.25
2018-12-25T03:26:46.409Z,87.51
2018-12-25T03:32:51.057Z,87.49
2018-12-25T03:38:55.605Z,87.30
2018-12-25T03:45:00.496Z,87.38
2018-12-25T03:51:05.111Z,87.45
2018-12-25T03:57:09.654Z,87.54
2018-12-25T04:03:14.223Z,87.15
2018-12-25T04:09:19.634Z,87.38
2018-12-25T04:15:24.191Z,87.78
2018-12-25T04:21:28.761Z,87.66
2018-12-25T04:27:33.324Z,87.42
2018-12-25T04:33:37.873Z,87.36
2018-12-25T04:39:42.457Z,86.38
2018-12-25T04:45:47.010Z,86.00
2018-12-25T04:51:51.594Z,85.65
2018-12-25T04:57:56.148Z,84.86
2018-12-25T05:04:00.783Z,84.04
2018-12-25T05:10:06.538Z,84.34
2018-12-25T05:16:11.101Z,84.53
2018-12-25T05:22:15.666Z,83.42
2018-12-25T05:28:21.713Z,82.91
2018-12-25T05:34:26.283Z,83.30
2018-12-25T05:40:30.844Z,83.55
2018-12-25T05:46:35.413Z,83.78
2018-12-25T05:52:39.988Z,83.58
2018-12-25T05:58:44.540Z,82.54
2018-12-25T06:04:50.825Z,83.18
2018-12-25T06:10:55.382Z,82.90
2018-12-25T06:16:59.946Z,82.62
2018-12-25T06:23:04.499Z,83.19
2018-12-25T06:29:09.099Z,83.66
2018-12-25T06:35:13.708Z,83.71
2018-12-25T06:41:18.278Z,83.47
2018-12-25T06:47:22.992Z,84.04
2018-12-25T06:53:27.649Z,84.63
2018-12-25T06:59:32.200Z,84.73
2018-12-25T07:05:36.772Z,85.98
2018-12-25T07:11:41.330Z,86.66
2018-12-25T07:17:45.911Z,87.54
2018-12-25T07:23:50.476Z,88.58
2018-12-25T07:29:55.033Z,89.05
2018-12-25T07:35:59.582Z,87.88
2018-12-25T07:42:04.148Z,87.50
2018-12-25T07:48:08.718Z,88.10
2018-12-25T07:54:13.307Z,88.17
2018-12-25T08:00:19.570Z,86.70
2018-12-25T08:06:24.244Z,86.05
2018-12-25T08:12:28.801Z,86.04
2018-12-25T08:18:33.372Z,85.85
2018-12-25T08:24:37.935Z,85.93
2018-12-25T08:30:42.496Z,85.76
2018-12-25T08:36:47.053Z,85.57
2018-12-25T08:42:52.323Z,83.92
2018-12-25T08:48:56.865Z,83.48
2018-12-25T08:55:01.423Z,83.60
2018-12-25T09:01:06.065Z,82.96
2018-12-25T09:07:10.616Z,82.64
2018-12-25T09:13:15.172Z,82.59
2018-12-25T09:19:19.745Z,83.89
2018-12-25T09:25:24.305Z,83.88
2018-12-25T09:31:28.877Z,83.16
2018-12-25T09:37:33.485Z,83.29
2018-12-25T09:43:38.046Z,82.38
2018-12-25T09:49:42.674Z,82.94
2018-12-25T09:55:47.222Z,83.65
2018-12-25T10:01:51.783Z,84.28
2018-12-25T10:07:56.434Z,84.83
2018-12-25T10:14:00.984Z,83.46
2018-12-25T10:20:05.963Z,84.24
2018-12-25T10:26:10.597Z,84.28
2018-12-25T10:32:15.155Z,83.48
2018-12-25T10:38:19.734Z,82.87
2018-12-25T10:44:24.279Z,83.15
2018-12-25T10:50:28.839Z,83.12
2018-12-25T10:56:33.407Z,83.76
2018-12-25T11:02:37.972Z,83.94
2018-12-25T11:08:42.514Z,84.00
2018-12-25T11:14:47.078Z,83.49
2018-12-25T11:20:52.201Z,82.50
2018-12-25T11:26:56.767Z,82.41
2018-12-25T11:33:01.320Z,82.08
2018-12-25T11:39:07.102Z,82.01
2018-12-25T11:45:11.738Z,83.22
2018-12-25T11:51:16.301Z,82.27
2018-12-25T11:57:20.858Z,81.69
2018-12-25T12:03:25.427Z,81.79
2018-12-25T12:09:30.087Z,81.11
2018-12-25T12:15:34.640Z,80.95
2018-12-25T12:21:39.206Z,80.28
2018-12-25T12:27:43.763Z,80.46
2018-12-25T12:33:48.345Z,79.64
2018-12-25T12:39:52.980Z,79.97
2018-12-25T12:45:57.610Z,79.93
2018-12-25T12:52:02.175Z,79.17
2018-12-25T12:58:06.804Z,78.17
2018-12-25T13:04:11.367Z,77.19
2018-12-25T13:10:15.918Z,75.19
2018-12-25T13:16:20.496Z,75.40
2018-12-25T13:22:25.043Z,75.01
2018-12-25T13:28:29.603Z,75.11
2018-12-25T13:34:34.171Z,74.53
2018-12-25T13:40:38.710Z,74.62
2018-12-25T13:46:51.325Z,75.23
2018-12-25T13:52:49.572Z,74.84
2018-12-25T13:58:55.012Z,75.74
2018-12-25T14:04:59.622Z,75.42
2018-12-25T14:11:04.291Z,75.62
2018-12-25T14:17:08.829Z,76.19
2018-12-25T14:23:13.402Z,76.79
2018-12-25T14:29:18.012Z,76.82
2018-12-25T14:35:22.634Z,76.80
2018-12-25T14:41:27.187Z,75.77
2018-12-25T14:47:31.745Z,76.36
2018-12-25T14:53:36.297Z,76.38
2018-12-25T14:59:40.914Z,77.11
2018-12-25T15:05:45.477Z,77.16
2018-12-25T15:11:50.047Z,76.54
2018-12-25T15:17:54.616Z,76.79
2018-12-25T15:23:59.254Z,77.04
2018-12-25T15:30:03.877Z,77.18
2018-12-25T15:36:08.522Z,78.36
2018-12-25T15:42:13.080Z,78.71
2018-12-25T15:48:17.651Z,78.87
2018-12-25T15:54:22.255Z,78.62
2018-12-25T16:00:26.874Z,78.90
2018-12-25T16:06:31.432Z,79.11
2018-12-25T16:12:35.997Z,79.40
2018-12-25T16:18:40.558Z,79.35
2018-12-25T16:24:45.126Z,79.11
2018-12-25T16:30:49.714Z,78.26
2018-12-25T16:36:54.267Z,78.39
2018-12-25T16:42:58.843Z,77.71
2018-12-25T16:49:03.473Z,77.19
2018-12-25T16:55:08.109Z,78.37
2018-12-25T17:01:12.673Z,78.55
2018-12-25T17:07:17.303Z,78.14
2018-12-25T17:13:21.853Z,78.42
2018-12-25T17:19:26.426Z,78.82
2018-12-25T17:25:31.007Z,79.17
2018-12-25T17:31:35.579Z,78.51
2018-12-25T17:37:40.210Z,77.52
2018-12-25T17:43:44.784Z,77.76
2018-12-25T17:49:49.365Z,78.56
2018-12-25T17:55:53.973Z,77.29
2018-12-25T18:01:58.529Z,77.14
2018-12-25T18:08:03.083Z,76.96
2018-12-25T18:14:07.652Z,76.93
2018-12-25T18:20:12.217Z,77.03
2018-12-25T18:26:16.782Z,77.28
2018-12-25T18:32:21.324Z,78.00
2018-12-25T18:38:25.888Z,77.91
2018-12-25T18:44:30.444Z,78.66
2018-12-25T18:50:35.008Z,78.84
2018-12-25T18:56:39.576Z,78.03
2018-12-25T19:02:44.140Z,77.30
2018-12-25T19:08:48.688Z,77.77
2018-12-25T19:14:59.246Z,77.16
2018-12-25T19:21:03.769Z,76.30
2018-12-25T19:27:08.318Z,76.17
2018-12-25T19:33:12.874Z,76.12
2018-12-25T19:39:17.509Z,75.07
2018-12-25T19:45:22.975Z,74.93
2018-12-25T19:51:27.593Z,74.74
2018-12-25T19:57:32.168Z,75.04
2018-12-25T20:03:40.425Z,75.84
2018-12-25T20:10:10.287Z,76.37
2018-12-25T20:16:52.952Z,77.87
2018-12-25T20:23:30.072Z,78.19
2018-12-25T20:30:01.645Z,79.22
2018-12-25T20:36:25.734Z,79.62
2018-12-25T20:43:13.578Z,79.69
2018-12-25T20:49:41.900Z,79.79
2018-12-25T20:56:02.951Z,80.34
2018-12-25T21:02:36.062Z,80.61
2018-12-25T21:09:34.599Z,79.62
2018-12-25T21:15:58.748Z,80.01
2018-12-25T21:22:10.409Z,78.97
2018-12-25T21:28:13.378Z,79.14
2018-12-25T21:34:18.286Z,79.27
2018-12-25T21:40:23.188Z,79.13
2018-12-25T21:46:28.091Z,79.08
2018-12-25T21:52:32.869Z,79.28
2018-12-25T21:58:37.572Z,78.84
2018-12-25T22:04:42.142Z,79.34
2018-12-25T22:10:46.703Z,78.72
2018-12-25T22:16:51.270Z,79.50
2018-12-25T22:22:55.857Z,79.87
2018-12-25T22:29:00.473Z,79.07
2018-12-25T22:35:05.161Z,78.51
2018-12-25T22:41:09.733Z,78.61
2018-12-25T22:47:14.306Z,78.38
2018-12-25T22:53:19.406Z,78.53
2018-12-25T22:59:24.021Z,78.99
2018-12-25T23:05:28.661Z,79.43
2018-12-25T23:11:33.259Z,77.58
2018-12-25T23:17:37.982Z,78.04
2018-12-25T23:23:42.551Z,77.97
2018-12-25T23:29:47.127Z,77.46
2018-12-25T23:35:53.241Z,78.04
2018-12-25T23:41:59.447Z,77.66
2018-12-25T23:48:04.156Z,76.77
2018-12-25T23:54:08.776Z,76.13
